Time;durP1;ratioP1;P1;durP2;ratioP2;P2;SDS_P1;SDS_P2;PMS_P1;PMS_P2;Temp;Humidity;BMP_temperature;BMP_pressure;BME280_temperature;BME280_humidity;BME280_pressure;Samples;Min_cycle;Max_cycle;Signal;HPM_P1;HPM_P2
2022/02/08 00:00:21;;;;;;;11.55;3.55;;;0.40;81.30;;;;;;5053722;28;20049;-78
2022/02/08 00:02:51;;;;;;;12.80;3.38;;;0.30;81.10;;;;;;5052951;28;20048;-79
2022/02/08 00:05:19;;;;;;;8.40;3.17;;;0.40;80.80;;;;;;5054238;28;20067;-78
2022/02/08 00:07:48;;;;;;;14.43;3.92;;;0.30;80.60;;;;;;5054177;28;20021;-79
2022/02/08 00:10:13;;;;;;;12.45;3.55;;;0.30;80.70;;;;;;5054075;28;20120;-79
2022/02/08 00:12:39;;;;;;;12.27;3.55;;;0.40;80.30;;;;;;5054059;28;20445;-79
2022/02/08 00:15:05;;;;;;;10.35;2.50;;;0.30;80.30;;;;;;5053905;28;20484;-79
2022/02/08 00:17:31;;;;;;;8.80;1.98;;;0.30;80.40;;;;;;5052886;28;20358;-79
2022/02/08 00:19:59;;;;;;;5.80;2.63;;;0.30;80.40;;;;;;5054135;28;20032;-79
2022/02/08 00:22:26;;;;;;;8.82;2.58;;;0.20;80.20;;;;;;5053813;28;20028;-78
2022/02/08 00:24:51;;;;;;;9.00;2.92;;;0.20;80.30;;;;;;5053799;28;20040;-78
2022/02/08 00:27:17;;;;;;;12.52;2.45;;;0.20;80.50;;;;;;5053620;28;20032;-77
2022/02/08 00:29:42;;;;;;;9.27;2.72;;;0.20;80.30;;;;;;5053586;28;20049;-77
2022/02/08 00:32:09;;;;;;;10.75;3.08;;;0.20;80.30;;;;;;5053596;28;20196;-77
2022/02/08 00:34:35;;;;;;;7.45;2.72;;;0.30;80.70;;;;;;5053497;28;20036;-78
2022/02/08 00:37:01;;;;;;;9.27;2.83;;;0.30;80.50;;;;;;5053595;28;20441;-77
2022/02/08 00:39:29;;;;;;;8.38;3.38;;;0.30;80.80;;;;;;5053386;28;20025;-78
2022/02/08 00:42:02;;;;;;;9.05;2.60;;;0.30;80.80;;;;;;5053491;28;20465;-77
2022/02/08 00:44:34;;;;;;;9.85;2.65;;;0.40;80.50;;;;;;5053304;28;20103;-77
2022/02/08 00:47:12;;;;;;;10.82;3.03;;;0.20;80.50;;;;;;5053422;28;20439;-78
2022/02/08 00:49:41;;;;;;;14.23;3.10;;;0.20;80.70;;;;;;5053407;28;20021;-78
2022/02/08 00:52:14;;;;;;;8.88;2.78;;;0.30;80.80;;;;;;5053159;28;20033;-78
2022/02/08 00:54:40;;;;;;;9.40;3.15;;;0.30;80.50;;;;;;5053299;28;20060;-78
2022/02/08 00:57:05;;;;;;;10.50;3.45;;;0.30;80.50;;;;;;5053327;28;20186;-78
2022/02/08 00:59:31;;;;;;;8.90;2.97;;;0.30;80.50;;;;;;5053370;28;20147;-78
2022/02/08 01:01:57;;;;;;;14.10;2.63;;;0.40;80.60;;;;;;5053231;28;20028;-77
2022/02/08 01:04:25;;;;;;;7.60;2.30;;;0.40;81.40;;;;;;5053175;28;20392;-78
2022/02/08 01:06:51;;;;;;;8.85;2.67;;;0.30;80.60;;;;;;5053250;28;20040;-76
2022/02/08 01:09:20;;;;;;;10.48;2.50;;;0.40;80.60;;;;;;5053112;28;20499;-76
2022/02/08 01:11:51;;;;;;;9.43;2.65;;;0.40;80.40;;;;;;5052000;28;20037;-76
2022/02/08 01:14:16;;;;;;;6.07;2.08;;;0.30;80.30;;;;;;5051704;28;20021;-76
2022/02/08 01:16:43;;;;;;;7.43;2.28;;;0.40;80.30;;;;;;5053047;28;20111;-76
2022/02/08 01:19:09;;;;;;;5.32;2.17;;;0.40;80.10;;;;;;5052894;28;20029;-77
2022/02/08 01:21:34;;;;;;;4.20;1.88;;;0.40;80.10;;;;;;5052955;28;20067;-76
2022/02/08 01:24:01;;;;;;;6.82;2.55;;;0.30;80.30;;;;;;5052941;28;20056;-76
2022/02/08 01:26:28;;;;;;;10.88;3.28;;;0.40;81.20;;;;;;5052871;28;20029;-77
2022/02/08 01:29:19;;;;;;;8.18;2.45;;;0.40;80.40;;;;;;5052753;28;20044;-77
2022/02/08 01:31:47;;;;;;;7.05;2.80;;;0.50;80.60;;;;;;5052802;28;20037;-77
2022/02/08 01:34:28;;;;;;;7.80;2.42;;;0.50;80.50;;;;;;5052800;28;20476;-77
2022/02/08 01:37:06;;;;;;;13.93;2.22;;;0.50;80.30;;;;;;5052815;28;20025;-77
2022/02/08 01:39:59;;;;;;;6.70;2.10;;;0.60;80.10;;;;;;5052771;28;20104;-77
2022/02/08 01:48:03;;;;;;;6.63;2.40;;;0.60;80.30;;;;;;5053048;28;20035;-78
2022/02/08 01:50:30;;;;;;;5.40;1.83;;;0.60;80.30;;;;;;5052658;28;20025;-78
2022/02/08 01:52:57;;;;;;;7.97;2.17;;;0.60;80.20;;;;;;5052557;28;20033;-77
2022/02/08 01:55:23;;;;;;;11.43;2.05;;;0.60;80.30;;;;;;5052709;28;20017;-77
2022/02/08 01:57:48;;;;;;;11.88;2.33;;;0.60;80.40;;;;;;5052599;28;20479;-77
2022/02/08 02:00:16;;;;;;;10.43;2.38;;;0.70;80.70;;;;;;5052643;28;20036;-77
2022/02/08 02:02:42;;;;;;;7.07;2.40;;;0.70;80.70;;;;;;5052574;28;20098;-78
2022/02/08 02:05:10;;;;;;;7.63;1.83;;;0.70;80.50;;;;;;5052470;28;20381;-78
2022/02/08 02:07:37;;;;;;;7.13;2.25;;;0.70;80.60;;;;;;5052587;28;20072;-78
2022/02/08 02:10:06;;;;;;;6.57;2.08;;;0.80;80.80;;;;;;5052436;28;20377;-78
2022/02/08 02:12:31;;;;;;;5.25;1.98;;;0.80;81.20;;;;;;5052457;28;20491;-78
2022/02/08 02:15:00;;;;;;;8.43;1.92;;;0.80;81.40;;;;;;5052389;28;20029;-78
2022/02/08 02:17:26;;;;;;;7.95;2.42;;;0.80;81.50;;;;;;5052238;28;20029;-78
2022/02/08 02:19:51;;;;;;;9.00;3.35;;;0.80;81.50;;;;;;5052438;28;20116;-78
2022/02/08 02:22:17;;;;;;;8.57;1.98;;;0.70;81.50;;;;;;5053591;28;20056;-78
2022/02/08 02:24:42;;;;;;;4.68;1.65;;;0.80;81.20;;;;;;5056039;28;20028;-78
2022/02/08 02:27:10;;;;;;;8.43;1.70;;;0.80;81.30;;;;;;5055990;28;20036;-78
2022/02/08 02:29:36;;;;;;;8.00;1.70;;;0.70;81.40;;;;;;5055674;28;20114;-79
2022/02/08 02:32:03;;;;;;;7.10;1.60;;;0.70;81.50;;;;;;5055839;28;20111;-78
2022/02/08 02:34:29;;;;;;;9.18;1.58;;;0.80;81.50;;;;;;5055916;28;20465;-77
2022/02/08 02:36:55;;;;;;;4.40;1.45;;;0.80;81.50;;;;;;5055817;28;20040;-78
2022/02/08 02:39:25;;;;;;;6.65;1.55;;;0.80;81.30;;;;;;5055669;28;20554;-78
2022/02/08 02:41:52;;;;;;;4.70;1.85;;;0.80;81.20;;;;;;5054538;28;20032;-78
2022/02/08 02:44:21;;;;;;;8.35;2.42;;;0.80;81.20;;;;;;5055561;28;20108;-78
2022/02/08 02:46:47;;;;;;;8.80;2.10;;;0.80;81.30;;;;;;5054278;28;20029;-79
2022/02/08 02:49:13;;;;;;;10.85;2.03;;;0.80;81.30;;;;;;5055561;28;20017;-78
2022/02/08 02:51:39;;;;;;;10.60;2.25;;;0.80;81.30;;;;;;5055346;28;20040;-78
2022/02/08 02:54:13;;;;;;;4.70;1.80;;;0.70;81.30;;;;;;5055769;28;20373;-78
2022/02/08 02:56:39;;;;;;;8.30;2.50;;;0.80;81.50;;;;;;5054354;28;20359;-78
2022/02/08 02:59:05;;;;;;;9.40;2.70;;;0.90;81.60;;;;;;5055376;28;20028;-77
2022/02/08 03:01:38;;;;;;;8.80;1.85;;;0.90;81.40;;;;;;5055282;28;20032;-78
2022/02/08 03:19:54;;;;;;;8.00;1.40;;;0.90;81.70;;;;;;5055164;28;20016;-78
2022/02/08 03:22:20;;;;;;;4.13;1.40;;;0.90;81.90;;;;;;5054859;28;20025;-77
2022/02/08 03:24:46;;;;;;;6.13;2.22;;;0.90;82.20;;;;;;5054918;28;20032;-77
2022/02/08 03:27:11;;;;;;;10.25;2.35;;;0.90;82.10;;;;;;5054900;28;20026;-78
2022/02/08 03:29:37;;;;;;;10.35;2.53;;;1.00;82.10;;;;;;5054630;28;20049;-77
2022/02/08 03:32:03;;;;;;;8.98;2.03;;;0.90;82.20;;;;;;5054788;28;20041;-77
2022/02/08 03:34:28;;;;;;;7.55;1.80;;;0.90;82.30;;;;;;5053772;28;20288;-77
2022/02/08 03:36:54;;;;;;;8.65;2.13;;;0.90;82.40;;;;;;5054612;28;20029;-77
2022/02/08 03:39:25;;;;;;;8.70;1.77;;;0.90;82.50;;;;;;5054578;28;20018;-77
2022/02/08 03:41:55;;;;;;;7.72;1.88;;;0.90;82.50;;;;;;5054783;28;20108;-77
2022/02/08 03:44:30;;;;;;;6.38;1.83;;;0.90;82.40;;;;;;5054485;28;20057;-77
2022/02/08 03:46:56;;;;;;;7.45;1.75;;;0.90;82.50;;;;;;5054440;28;20021;-77
2022/02/08 03:49:21;;;;;;;9.45;2.00;;;0.90;82.70;;;;;;5054384;28;20074;-77
2022/02/08 03:51:59;;;;;;;7.45;2.25;;;0.90;82.70;;;;;;5054310;28;20029;-77
2022/02/08 03:54:25;;;;;;;10.40;2.30;;;1.00;82.80;;;;;;5054592;28;20107;-78
2022/02/08 03:56:51;;;;;;;9.88;2.05;;;0.90;82.90;;;;;;5054245;28;20032;-78
2022/02/08 03:59:17;;;;;;;10.00;2.08;;;0.90;82.80;;;;;;5054180;28;20021;-78
2022/02/08 04:07:13;;;;;;;6.45;1.95;;;0.90;83.30;;;;;;5054147;28;20078;-77
2022/02/08 04:09:38;;;;;;;10.25;2.33;;;1.00;83.00;;;;;;5054101;28;20022;-77
2022/02/08 04:12:11;;;;;;;7.45;2.10;;;0.90;83.20;;;;;;5054114;28;20037;-78
2022/02/08 04:15:08;;;;;;;7.88;1.77;;;0.90;83.30;;;;;;5054053;28;20033;-78
2022/02/08 04:17:56;;;;;;;9.35;1.88;;;0.90;83.40;;;;;;5053822;28;20029;-77
2022/02/08 04:34:18;;;;;;;7.60;1.83;;;1.10;83.60;;;;;;5053763;28;20032;-77
2022/02/08 04:37:03;;;;;;;9.30;1.98;;;1.10;83.50;;;;;;5053394;28;20036;-77
2022/02/08 04:42:25;;;;;;;10.63;2.03;;;1.10;83.40;;;;;;5053410;28;20003;-77
2022/02/08 04:45:16;;;;;;;8.43;2.00;;;1.10;83.30;;;;;;5052997;28;20090;-77
2022/02/08 04:48:00;;;;;;;11.43;2.08;;;1.10;83.30;;;;;;5053318;28;20021;-77
2022/02/08 04:50:28;;;;;;;8.48;1.92;;;1.10;83.20;;;;;;5053141;28;20444;-78
2022/02/08 04:52:59;;;;;;;6.00;1.60;;;1.10;83.30;;;;;;5053194;28;20032;-78
2022/02/08 04:55:41;;;;;;;7.88;1.42;;;1.20;83.30;;;;;;5053169;28;20017;-77
2022/02/08 05:36:19;;;;;;;8.05;2.30;;;2.40;75.40;;;;;;5052932;28;20036;-77
2022/02/08 05:44:11;;;;;;;16.00;2.75;;;2.60;74.00;;;;;;5052689;28;20139;-76
2022/02/08 05:49:10;;;;;;;11.45;2.90;;;2.70;74.40;;;;;;5052602;28;20441;-76
2022/02/08 05:54:16;;;;;;;10.38;3.00;;;2.70;75.30;;;;;;5052585;28;20021;-77
2022/02/08 05:56:42;;;;;;;11.63;3.10;;;2.70;75.70;;;;;;5052948;28;20021;-77
2022/02/08 05:59:08;;;;;;;16.77;3.35;;;2.70;76.00;;;;;;5056245;28;20481;-77
2022/02/08 06:01:35;;;;;;;14.68;3.50;;;2.70;76.80;;;;;;5056444;28;20025;-77
2022/02/08 06:04:01;;;;;;;12.15;4.18;;;2.60;76.30;;;;;;5056440;28;20608;-77
2022/02/08 06:06:29;;;;;;;17.77;4.55;;;2.70;76.80;;;;;;5056196;28;20108;-77
2022/02/08 06:08:55;;;;;;;15.48;4.70;;;2.60;76.90;;;;;;5055248;28;20025;-77
2022/02/08 06:11:22;;;;;;;15.27;4.50;;;2.60;77.20;;;;;;5056042;28;20040;-78
2022/02/08 06:13:51;;;;;;;13.75;4.97;;;2.60;77.40;;;;;;5056289;28;20023;-77
2022/02/08 06:16:18;;;;;;;25.50;5.93;;;2.50;77.60;;;;;;5056036;28;20013;-77
2022/02/08 06:18:45;;;;;;;18.10;5.63;;;2.50;78.10;;;;;;5055673;28;20021;-77
2022/02/08 06:21:12;;;;;;;11.65;4.57;;;2.50;78.40;;;;;;5055585;28;20029;-77
2022/02/08 06:23:37;;;;;;;10.65;4.00;;;2.50;79.20;;;;;;5055875;28;20036;-78
2022/02/08 06:26:03;;;;;;;17.13;4.78;;;2.40;79.80;;;;;;5055741;28;20020;-79
2022/02/08 06:28:29;;;;;;;15.57;4.65;;;2.40;79.80;;;;;;5055135;28;20095;-78
2022/02/08 06:30:54;;;;;;;14.63;3.83;;;2.50;79.90;;;;;;5055349;28;20033;-77
2022/02/08 06:33:21;;;;;;;12.30;3.85;;;2.50;79.90;;;;;;5055152;28;20385;-78
2022/02/08 06:35:46;;;;;;;22.63;4.18;;;2.50;80.00;;;;;;5055479;28;20032;-77
2022/02/08 06:38:15;;;;;;;8.52;2.80;;;2.50;80.10;;;;;;5055430;28;20100;-78
2022/02/08 06:40:42;;;;;;;8.45;2.88;;;2.50;80.30;;;;;;5055463;28;20029;-77
2022/02/08 06:43:08;;;;;;;9.88;2.60;;;2.50;80.30;;;;;;5055514;28;20495;-77
2022/02/08 06:45:34;;;;;;;13.48;3.30;;;2.60;80.50;;;;;;5058918;28;20029;-77
2022/02/08 06:48:02;;;;;;;12.02;2.95;;;2.60;80.20;;;;;;5055457;28;20049;-78
2022/02/08 06:50:28;;;;;;;14.10;3.10;;;2.60;79.70;;;;;;5055626;28;20381;-78
2022/02/08 06:52:53;;;;;;;14.68;4.30;;;2.70;79.70;;;;;;5055851;28;20033;-78
2022/02/08 06:55:19;;;;;;;19.35;3.03;;;2.70;79.50;;;;;;5055321;28;20022;-79
2022/02/08 06:57:54;;;;;;;18.98;2.67;;;2.70;79.20;;;;;;5055420;28;20040;-77
2022/02/08 07:00:29;;;;;;;9.70;2.23;;;2.70;78.70;;;;;;5054891;28;20457;-78
2022/02/08 07:02:55;;;;;;;11.57;2.42;;;2.80;78.20;;;;;;5053683;28;20024;-78
2022/02/08 07:05:21;;;;;;;10.40;2.58;;;2.80;78.10;;;;;;5054924;28;20384;-78
2022/02/08 07:07:46;;;;;;;14.80;3.20;;;2.90;78.30;;;;;;5053495;28;20354;-79
2022/02/08 07:10:12;;;;;;;10.57;2.50;;;2.90;78.30;;;;;;5054425;28;20052;-78
2022/02/08 07:12:39;;;;;;;10.35;2.05;;;3.00;78.10;;;;;;5054972;28;20096;-79
2022/02/08 07:15:12;;;;;;;9.00;2.63;;;3.00;77.40;;;;;;5055101;28;20013;-78
2022/02/08 07:17:38;;;;;;;15.52;4.28;;;3.00;77.30;;;;;;5055345;28;20381;-79
2022/02/08 07:20:05;;;;;;;14.55;5.18;;;3.10;78.30;;;;;;5055210;28;20017;-79
2022/02/08 07:22:31;;;;;;;24.00;6.82;;;3.00;77.40;;;;;;5053708;28;20043;-79
2022/02/08 07:24:58;;;;;;;17.42;5.00;;;3.10;77.70;;;;;;5054467;28;20021;-79
2022/02/08 07:27:24;;;;;;;13.13;4.60;;;3.10;77.40;;;;;;5054503;28;20021;-78
2022/02/08 07:29:52;;;;;;;15.52;5.38;;;3.10;77.00;;;;;;5054508;28;20044;-78
2022/02/08 07:32:26;;;;;;;16.55;3.63;;;3.20;77.00;;;;;;5054264;28;20029;-78
2022/02/08 07:34:59;;;;;;;14.35;3.42;;;3.20;76.30;;;;;;5054702;28;20071;-78
2022/02/08 07:37:44;;;;;;;17.27;4.65;;;3.30;74.00;;;;;;5054524;28;20023;-79
2022/02/08 07:40:15;;;;;;;13.88;3.15;;;3.30;74.00;;;;;;5054530;28;20462;-76
2022/02/08 07:42:41;;;;;;;12.15;2.88;;;3.80;84.50;;;;;;5054578;28;20025;-78
2022/02/08 07:45:07;;;;;;;9.80;3.13;;;4.20;82.40;;;;;;5054514;28;20036;-80
2022/02/08 07:47:33;;;;;;;12.75;3.58;;;4.30;78.70;;;;;;5052887;28;20120;-77
2022/02/08 07:49:58;;;;;;;10.68;3.30;;;4.50;77.80;;;;;;5054219;28;20389;-77
2022/02/08 07:52:24;;;;;;;12.80;2.95;;;4.90;78.00;;;;;;5054405;28;20422;-76
2022/02/08 07:54:49;;;;;;;7.63;2.10;;;4.90;74.40;;;;;;5055708;28;20052;-84
2022/02/08 07:57:18;;;;;;;12.52;2.63;;;5.10;74.80;;;;;;5055281;28;20057;-85
2022/02/08 07:59:43;;;;;;;14.70;3.88;;;5.50;75.90;;;;;;5054519;28;20385;-74
2022/02/08 08:02:09;;;;;;;10.13;2.42;;;5.60;72.60;;;;;;5054027;28;20029;-74
2022/02/08 08:04:34;;;;;;;10.48;3.10;;;5.50;71.30;;;;;;5054012;28;20021;-73
2022/02/08 08:07:00;;;;;;;8.10;3.38;;;5.70;69.60;;;;;;5052787;28;20052;-74
2022/02/08 08:09:26;;;;;;;8.27;2.58;;;5.80;68.60;;;;;;5055595;28;20017;-74
2022/02/08 08:11:53;;;;;;;10.50;3.45;;;6.00;70.90;;;;;;5054293;28;20029;-77
2022/02/08 08:14:22;;;;;;;17.55;3.58;;;6.30;70.10;;;;;;5054228;28;20462;-78
2022/02/08 08:17:13;;;;;;;13.60;4.28;;;6.40;67.40;;;;;;5053061;28;20412;-77
2022/02/08 08:19:38;;;;;;;13.98;4.47;;;6.10;66.50;;;;;;5051837;28;20025;-74
2022/02/08 08:22:08;;;;;;;12.48;3.53;;;5.90;66.90;;;;;;5052348;28;20078;-77
2022/02/08 08:24:35;;;;;;;8.85;2.72;;;5.50;65.90;;;;;;5051964;28;20090;-77
2022/02/08 08:27:00;;;;;;;9.70;3.20;;;5.30;66.50;;;;;;5052009;28;20021;-74
2022/02/08 08:29:26;;;;;;;11.35;5.28;;;5.20;67.10;;;;;;5051980;28;20152;-76
2022/02/08 08:31:52;;;;;;;16.58;7.45;;;5.20;68.40;;;;;;5052028;28;20040;-75
2022/02/08 08:34:17;;;;;;;15.98;5.70;;;5.00;69.20;;;;;;5051754;28;20017;-74
2022/02/08 08:36:44;;;;;;;10.48;3.80;;;5.00;69.50;;;;;;5051758;28;20025;-80
2022/02/08 08:39:11;;;;;;;16.50;4.88;;;4.90;68.40;;;;;;5052041;28;20021;-73
2022/02/08 08:41:45;;;;;;;7.15;2.60;;;4.90;67.90;;;;;;5052086;28;20392;-74
2022/02/08 08:49:58;;;;;;;7.15;2.78;;;5.10;66.40;;;;;;5053576;28;20380;-72
2022/02/08 08:52:18;;;;;;;3.90;1.83;;;5.10;66.50;;;;;;5052670;28;20040;-79
2022/02/08 08:54:43;;;;;;;8.25;1.63;;;5.20;64.00;;;;;;5051917;28;20036;-73
2022/02/08 08:57:09;;;;;;;7.03;1.98;;;5.10;63.30;;;;;;5051913;28;20027;-72
2022/02/08 08:59:35;;;;;;;7.28;1.83;;;5.20;62.10;;;;;;5051440;28;20025;-73
2022/02/08 09:02:01;;;;;;;4.15;1.90;;;5.30;61.50;;;;;;5051770;28;20446;-72
2022/02/08 09:04:33;;;;;;;4.50;1.67;;;5.50;61.30;;;;;;5051518;28;20390;-77
2022/02/08 09:06:59;;;;;;;8.95;2.13;;;5.50;59.50;;;;;;5052998;28;20150;-76
2022/02/08 09:09:27;;;;;;;5.93;1.70;;;5.60;59.40;;;;;;5051718;28;20114;-76
2022/02/08 09:12:26;;;;;;;6.05;1.58;;;5.70;59.90;;;;;;5051355;28;20029;-75
2022/02/08 09:16:32;;;;;;;;;;;6.00;58.20;;;;;;5152289;27;20820;-77
2022/02/08 09:21:45;;;;;;;6.05;2.00;;;6.40;57.60;;;;;;5151728;27;20375;-76
2022/02/08 09:29:20;;;;;;;7.88;1.65;;;6.70;56.00;;;;;;5151495;27;20022;-76
2022/02/08 09:31:47;;;;;;;7.80;2.22;;;6.90;55.50;;;;;;5151689;27;20049;-77
2022/02/08 09:34:13;;;;;;;4.97;1.40;;;7.00;54.20;;;;;;5151312;27;20486;-77
2022/02/08 09:36:39;;;;;;;4.45;1.35;;;7.20;53.50;;;;;;5132768;27;20041;-76
2022/02/08 09:39:04;;;;;;;6.07;1.77;;;7.30;53.30;;;;;;5151155;27;20025;-77
2022/02/08 09:41:34;;;;;;;6.35;1.60;;;7.30;52.70;;;;;;5151326;27;20364;-77
2022/02/08 09:44:03;;;;;;;6.80;1.50;;;7.30;52.70;;;;;;5151207;27;20023;-77
2022/02/08 09:46:29;;;;;;;6.72;1.45;;;7.30;52.60;;;;;;5151276;27;20019;-77
2022/02/08 09:48:57;;;;;;;3.95;1.30;;;7.30;52.90;;;;;;5151142;27;20027;-77
2022/02/08 09:51:24;;;;;;;6.28;1.40;;;7.30;53.20;;;;;;5151080;27;20015;-78
2022/02/08 09:53:56;;;;;;;6.53;1.60;;;7.50;52.50;;;;;;5151048;27;20053;-77
2022/02/08 09:56:24;;;;;;;8.48;1.98;;;7.80;52.10;;;;;;5150805;27;20022;-78
2022/02/08 09:58:51;;;;;;;2.83;1.13;;;8.10;51.40;;;;;;5150964;27;20125;-77
2022/02/08 10:01:24;;;;;;;8.80;1.55;;;8.30;50.40;;;;;;5150865;27;20363;-77
2022/02/08 10:03:57;;;;;;;11.93;3.75;;;8.40;50.10;;;;;;5132419;27;20458;-77
2022/02/08 10:06:24;;;;;;;7.35;1.95;;;8.40;50.20;;;;;;5150810;27;20110;-77
2022/02/08 10:09:09;;;;;;;5.03;1.42;;;8.60;49.80;;;;;;5150803;27;20471;-77
2022/02/08 10:11:50;;;;;;;9.02;1.80;;;8.80;49.40;;;;;;5150827;27;20053;-78
2022/02/08 10:18:58;;;;;;;3.60;1.58;;;9.00;48.70;;;;;;5150630;27;20126;-77
2022/02/08 10:22:34;;;;;;;6.47;1.30;;;9.50;45.80;;;;;;5150423;27;20378;-77
2022/02/08 10:25:20;;;;;;;7.90;1.42;;;9.70;45.00;;;;;;5150292;27;20019;-76
2022/02/08 10:28:17;;;;;;;2.88;1.02;;;9.80;45.50;;;;;;5136016;27;20164;-77
2022/02/08 10:31:04;;;;;;;2.30;1.27;;;10.20;45.00;;;;;;5136611;27;20108;-77
2022/02/08 10:39:00;;;;;;;6.10;0.95;;;10.90;43.00;;;;;;5136620;27;19911;-76
2022/02/08 10:41:26;;;;;;;5.63;1.65;;;11.20;43.10;;;;;;5117881;27;20027;-76
2022/02/08 10:44:07;;;;;;;10.23;1.75;;;11.50;44.00;;;;;;5136513;27;20019;-76
2022/02/08 10:46:35;;;;;;;4.38;1.20;;;11.70;43.90;;;;;;5117801;27;20028;-76
2022/02/08 10:49:02;;;;;;;4.47;0.95;;;11.90;42.40;;;;;;5136201;27;20026;-76
2022/02/08 10:51:28;;;;;;;2.47;1.00;;;11.90;40.50;;;;;;5136296;27;20128;-76
2022/02/08 10:54:00;;;;;;;2.92;1.00;;;11.50;41.40;;;;;;5136249;27;20030;-77
2022/02/08 10:56:30;;;;;;;3.35;0.70;;;11.10;43.00;;;;;;5136527;27;20023;-77
2022/02/08 10:59:13;;;;;;;5.15;0.95;;;11.10;42.40;;;;;;5136037;27;20024;-77
2022/02/08 11:01:46;;;;;;;2.13;0.80;;;10.90;42.80;;;;;;5136081;27;20027;-77
2022/02/08 11:04:19;;;;;;;2.80;0.70;;;10.70;42.70;;;;;;5135657;27;20015;-77
2022/02/08 11:07:10;;;;;;;5.22;0.70;;;10.40;43.50;;;;;;5135493;27;20011;-78
2022/02/08 11:09:44;;;;;;;2.50;0.55;;;10.40;43.70;;;;;;5135508;27;20027;-77
2022/02/08 11:12:22;;;;;;;1.83;0.50;;;10.40;44.70;;;;;;5135277;27;20366;-76
2022/02/08 11:20:22;;;;;;;2.13;0.68;;;10.10;46.70;;;;;;5135109;27;20048;-77
2022/02/08 11:22:57;;;;;;;4.93;1.20;;;10.30;46.60;;;;;;5134971;27;20102;-77
2022/02/08 11:27:54;;;;;;;2.67;0.85;;;10.50;47.10;;;;;;5135154;27;20091;-77
2022/02/08 11:30:27;;;;;;;2.17;0.70;;;10.80;47.70;;;;;;5135328;27;20110;-77
2022/02/08 11:33:21;;;;;;;4.70;0.60;;;11.20;46.10;;;;;;5135229;27;20048;-75
2022/02/08 11:39:13;;;;;;;6.93;0.77;;;11.30;46.10;;;;;;5134442;27;20034;-76
2022/02/08 11:50:09;;;;;;;1.92;0.80;;;11.50;44.90;;;;;;5134868;27;20026;-77
2022/02/08 11:58:10;;;;;;;3.72;0.80;;;12.20;42.70;;;;;;5134898;27;20485;-77
2022/02/08 12:00:43;;;;;;;3.35;0.95;;;12.40;41.90;;;;;;5115959;27;20023;-77
2022/02/08 12:06:25;;;;;;;1.63;0.52;;;12.80;42.00;;;;;;5134110;27;20368;-77
2022/02/08 12:08:34;;;;;;;;;;;12.90;41.60;;;;;;5134006;27;20063;-76
2022/02/08 12:11:21;;;;;;;;;;;12.90;42.30;;;;;;5134933;27;19948;-77
2022/02/08 12:33:05;;;;;;;3.25;0.88;;;13.50;42.00;;;;;;5134232;27;20027;-77
2022/02/08 12:35:56;;;;;;;3.22;0.85;;;13.70;41.80;;;;;;5115982;27;20019;-76
2022/02/08 12:53:09;;;;;;;1.63;0.50;;;15.00;37.80;;;;;;5133694;27;20387;-75
2022/02/08 12:57:57;;;;;;;2.28;0.60;;;15.00;36.50;;;;;;5134034;27;20035;-76
2022/02/08 13:03:47;;;;;;;4.40;1.40;;;14.80;37.70;;;;;;5050358;28;20148;-76
2022/02/08 13:06:35;;;;;;;2.03;0.43;;;14.80;37.80;;;;;;5050198;28;20053;-77
2022/02/08 14:03:32;;;;;;;6.00;1.15;;;12.00;45.70;;;;;;5137489;27;20112;-76
2022/02/08 14:06:13;;;;;;;1.77;0.82;;;12.00;46.00;;;;;;5136846;27;20062;-77
2022/02/08 14:11:54;;;;;;;3.22;0.88;;;11.50;48.30;;;;;;5137110;27;20033;-77
2022/02/08 14:30:30;;;;;;;3.50;1.38;;;10.70;52.50;;;;;;5115338;28;20084;-77
2022/02/08 14:33:27;;;;;;;4.85;1.02;;;10.80;51.60;;;;;;5098669;28;20028;-76
2022/02/08 14:36:09;;;;;;;5.03;1.02;;;11.30;51.30;;;;;;5114615;28;20065;-76
2022/02/08 15:08:54;;;;;;;3.50;0.60;;;10.00;60.20;;;;;;5115878;28;20442;-76
2022/02/08 15:11:20;;;;;;;1.52;0.98;;;10.10;61.50;;;;;;5114148;28;20032;-76
2022/02/08 15:13:49;;;;;;;4.00;1.17;;;10.10;61.90;;;;;;5115298;27;20363;-76
2022/02/08 15:16:24;;;;;;;1.60;0.40;;;10.00;62.90;;;;;;5117731;27;20027;-77
2022/02/08 15:18:52;;;;;;;2.15;0.70;;;9.90;62.00;;;;;;5135948;27;20016;-77
2022/02/08 15:21:25;;;;;;;7.57;1.20;;;9.90;61.50;;;;;;5117384;27;20053;-77
2022/02/08 15:23:51;;;;;;;3.45;1.15;;;9.90;61.20;;;;;;5117614;27;20381;-76
2022/02/08 15:26:17;;;;;;;6.78;1.33;;;9.90;61.10;;;;;;5117116;27;20060;-77
2022/02/08 15:28:43;;;;;;;8.93;1.35;;;9.90;61.00;;;;;;5117248;27;20490;-77
2022/02/08 15:31:08;;;;;;;7.05;1.30;;;10.00;59.80;;;;;;5117388;27;20027;-77
2022/02/08 15:33:34;;;;;;;4.85;0.70;;;10.10;59.80;;;;;;5135455;27;20309;-77
2022/02/08 15:36:00;;;;;;;2.33;0.80;;;10.10;59.90;;;;;;5117123;27;20485;-77
2022/02/08 15:38:33;;;;;;;1.35;0.60;;;10.10;60.90;;;;;;5116910;27;20106;-78
2022/02/08 15:41:01;;;;;;;0.68;0.50;;;10.30;60.70;;;;;;5116514;27;20537;-78
2022/02/08 15:43:28;;;;;;;0.80;0.40;;;10.50;60.90;;;;;;5116511;27;20467;-77
2022/02/08 15:46:06;;;;;;;3.13;0.45;;;11.20;59.70;;;;;;5116799;27;20043;-77
2022/02/08 15:48:33;;;;;;;1.95;0.40;;;12.80;54.90;;;;;;5135307;27;20015;-77
2022/02/08 15:51:13;;;;;;;4.63;0.93;;;15.00;47.70;;;;;;5116651;27;20382;-76
2022/02/08 16:01:14;;;;;;;3.88;0.82;;;20.90;31.10;;;;;;5134743;27;20411;-76
2022/02/08 16:14:47;;;;;;;3.25;1.00;;;15.40;41.50;;;;;;5116151;27;20050;-76
2022/02/08 16:17:27;;;;;;;2.72;1.00;;;14.50;43.70;;;;;;5116210;27;20038;-77
2022/02/08 16:25:45;;;;;;;7.80;2.63;;;12.70;50.60;;;;;;5133870;27;20080;-77
2022/02/08 16:28:20;;;;;;;5.30;1.98;;;12.10;52.30;;;;;;5115818;27;20030;-76
2022/02/08 16:48:55;;;;;;;21.77;8.93;;;9.70;64.20;;;;;;5134106;27;20029;-78
2022/02/08 16:53:17;;;;;;;29.77;11.70;;;9.20;66.50;;;;;;5134056;27;20060;-77
2022/02/08 17:00:57;;;;;;;12.68;5.75;;;8.50;70.00;;;;;;5133879;27;20459;-76
2022/02/08 17:03:27;;;;;;;13.32;6.20;;;8.40;70.70;;;;;;5115157;27;20077;-77
2022/02/08 17:05:53;;;;;;;16.70;7.50;;;8.20;71.30;;;;;;5115846;27;20461;-77
2022/02/08 17:08:19;;;;;;;16.55;7.10;;;8.00;71.80;;;;;;5115514;27;20071;-77
2022/02/08 17:10:49;;;;;;;15.48;6.50;;;7.80;72.80;;;;;;5115422;28;20023;-78
2022/02/08 17:44:54;;;;;;;5.85;3.58;;;6.70;76.90;;;;;;5136799;27;20129;-75
2022/02/08 17:48:18;;;;;;;7.43;3.20;;;6.30;78.50;;;;;;5137638;27;20031;-78
2022/02/08 17:50:48;;;;;;;7.30;3.53;;;6.30;78.80;;;;;;5119000;27;20103;-78
2022/02/08 17:53:15;;;;;;;10.38;4.55;;;6.30;78.80;;;;;;5119185;27;20023;-76
2022/02/08 17:55:40;;;;;;;21.45;8.25;;;6.30;78.40;;;;;;5118960;27;20026;-77
2022/02/08 17:58:06;;;;;;;23.50;9.35;;;6.30;78.30;;;;;;5119020;27;20027;-77
2022/02/08 18:00:33;;;;;;;22.00;9.65;;;6.30;78.20;;;;;;5119070;27;20467;-77
2022/02/08 18:03:02;;;;;;;17.20;7.97;;;6.20;77.90;;;;;;5119029;27;20019;-76
2022/02/08 18:05:28;;;;;;;18.95;8.30;;;6.20;78.00;;;;;;5101572;27;20035;-77
2022/02/08 18:07:55;;;;;;;16.65;8.82;;;6.20;78.10;;;;;;5118304;27;20024;-76
2022/02/08 18:10:23;;;;;;;18.95;10.13;;;6.10;78.20;;;;;;5118619;27;20493;-77
2022/02/08 18:12:52;;;;;;;19.35;9.73;;;6.00;78.50;;;;;;5118662;27;20026;-77
2022/02/08 18:15:18;;;;;;;15.73;7.75;;;5.80;79.10;;;;;;5118196;27;20043;-77
2022/02/08 18:17:53;;;;;;;15.23;6.53;;;5.70;79.60;;;;;;5117542;27;20027;-78
2022/02/08 19:11:43;;;;;;;16.17;6.85;;;5.00;80.70;;;;;;5115386;28;20038;-74
2022/02/08 19:19:41;;;;;;;15.80;7.43;;;4.90;81.00;;;;;;5115080;28;20012;-75
2022/02/08 19:22:06;;;;;;;14.40;7.70;;;4.90;80.90;;;;;;5096724;28;20051;-74
2022/02/08 19:24:32;;;;;;;15.02;7.75;;;4.90;80.90;;;;;;5096727;28;20467;-75
2022/02/08 19:27:00;;;;;;;17.30;9.88;;;4.80;80.80;;;;;;5096679;28;20019;-74
2022/02/08 19:29:26;;;;;;;18.85;10.50;;;4.90;80.80;;;;;;5096657;28;20026;-74
2022/02/08 19:31:53;;;;;;;23.40;10.93;;;4.70;80.90;;;;;;5096665;28;20497;-81
2022/02/08 19:34:20;;;;;;;23.83;10.88;;;4.70;81.40;;;;;;5097006;28;20368;-78
2022/02/08 19:36:46;;;;;;;22.02;11.40;;;4.60;81.40;;;;;;5097062;28;20051;-75
2022/02/08 19:39:13;;;;;;;22.83;9.77;;;4.60;81.40;;;;;;5096592;28;20023;-74
2022/02/08 19:41:38;;;;;;;23.20;11.07;;;4.60;81.60;;;;;;5096527;28;20026;-76
2022/02/08 19:44:07;;;;;;;26.08;11.35;;;4.60;81.50;;;;;;5096246;28;20110;-75
2022/02/08 19:46:33;;;;;;;27.35;10.98;;;4.60;81.40;;;;;;5096500;28;20388;-78
2022/02/08 19:48:59;;;;;;;22.10;9.85;;;4.60;81.20;;;;;;5115290;28;20042;-76
2022/02/08 19:51:25;;;;;;;19.95;8.50;;;4.60;82.10;;;;;;5096641;28;20030;-75
2022/02/08 19:53:53;;;;;;;14.38;7.70;;;4.60;81.50;;;;;;5096401;28;20016;-78
2022/02/08 19:56:25;;;;;;;15.88;8.35;;;4.50;81.70;;;;;;5096327;28;20034;-76
2022/02/08 19:58:55;;;;;;;16.13;7.32;;;4.40;81.60;;;;;;5095378;28;20368;-77
2022/02/08 20:01:29;;;;;;;16.63;7.70;;;4.40;81.90;;;;;;5096089;28;20049;-74
2022/02/08 20:06:26;;;;;;;18.40;7.45;;;4.30;82.00;;;;;;5114559;28;20114;-78
2022/02/08 20:08:52;;;;;;;11.98;7.47;;;4.30;81.90;;;;;;5096010;28;20039;-74
2022/02/08 20:11:18;;;;;;;14.82;6.95;;;4.30;81.80;;;;;;5095968;28;20027;-76
2022/02/08 20:13:51;;;;;;;11.40;6.80;;;4.30;81.50;;;;;;5095968;28;20043;-77